sensor_id;sensor_type;location;lat;lon;timestamp;P1;durP1;ratioP1;P2;durP2;ratioP2
30249;SDS011;17064;47.974;13.826;2023-03-20T04:04:18;20.27;;;13.68;;
30249;SDS011;17064;47.974;13.826;2023-03-20T04:09:21;21.73;;;14.07;;
30249;SDS011;17064;47.974;13.826;2023-03-20T04:14:21;22.02;;;14.07;;
30249;SDS011;17064;47.974;13.826;2023-03-20T04:19:23;18.65;;;13.05;;
30249;SDS011;17064;47.974;13.826;2023-03-20T04:24:24;22.20;;;12.82;;
30249;SDS011;17064;47.974;13.826;2023-03-20T04:29:25;19.08;;;12.85;;
30249;SDS011;17064;47.974;13.826;2023-03-20T04:34:26;18.95;;;12.75;;
30249;SDS011;17064;47.974;13.826;2023-03-20T04:39:27;17.83;;;11.23;;
30249;SDS011;17064;47.974;13.826;2023-03-20T04:44:27;16.45;;;10.75;;
30249;SDS011;17064;47.974;13.826;2023-03-20T04:49:28;19.77;;;10.68;;
30249;SDS011;17064;47.974;13.826;2023-03-20T04:54:29;17.67;;;10.73;;
30249;SDS011;17064;47.974;13.826;2023-03-20T04:59:48;16.90;;;10.55;;
30249;SDS011;17064;47.974;13.826;2023-03-20T05:04:48;13.82;;;9.45;;
30249;SDS011;17064;47.974;13.826;2023-03-20T05:09:50;13.15;;;8.57;;
30249;SDS011;17064;47.974;13.826;2023-03-20T05:14:50;16.17;;;8.52;;
30249;SDS011;17064;47.974;13.826;2023-03-20T05:19:51;10.98;;;7.72;;
30249;SDS011;17064;47.974;13.826;2023-03-20T05:24:52;9.90;;;7.35;;
30249;SDS011;17064;47.974;13.826;2023-03-20T05:29:53;11.70;;;6.90;;
30249;SDS011;17064;47.974;13.826;2023-03-20T05:34:54;7.68;;;5.85;;
30249;SDS011;17064;47.974;13.826;2023-03-20T05:39:55;8.68;;;6.07;;
30249;SDS011;17064;47.974;13.826;2023-03-20T05:44:55;11.55;;;7.38;;
30249;SDS011;17064;47.974;13.826;2023-03-20T05:49:56;9.13;;;6.47;;
30249;SDS011;17064;47.974;13.826;2023-03-20T05:54:57;9.00;;;5.85;;
30249;SDS011;17064;47.974;13.826;2023-03-20T05:59:59;8.88;;;5.75;;
30249;SDS011;17064;47.974;13.826;2023-03-20T06:05:00;6.22;;;5.10;;
30249;SDS011;17064;47.974;13.826;2023-03-20T06:10:00;9.93;;;5.70;;
30249;SDS011;17064;47.974;13.826;2023-03-20T06:15:01;8.48;;;5.80;;
30249;SDS011;17064;47.974;13.826;2023-03-20T06:20:04;10.10;;;5.68;;
30249;SDS011;17064;47.974;13.826;2023-03-20T06:25:05;5.60;;;4.70;;
30249;SDS011;17064;47.974;13.826;2023-03-20T06:30:07;10.52;;;5.50;;
30249;SDS011;17064;47.974;13.826;2023-03-20T06:35:08;10.98;;;5.75;;
30249;SDS011;17064;47.974;13.826;2023-03-20T06:40:09;7.40;;;5.57;;
30249;SDS011;17064;47.974;13.826;2023-03-20T06:45:10;8.30;;;5.18;;
30249;SDS011;17064;47.974;13.826;2023-03-20T06:50:12;10.68;;;5.70;;
30249;SDS011;17064;47.974;13.826;2023-03-20T06:55:14;8.30;;;5.68;;
30249;SDS011;17064;47.974;13.826;2023-03-20T07:00:14;7.75;;;5.03;;
30249;SDS011;17064;47.974;13.826;2023-03-20T07:05:16;9.18;;;5.40;;
30249;SDS011;17064;47.974;13.826;2023-03-20T07:10:17;6.85;;;4.60;;
30249;SDS011;17064;47.974;13.826;2023-03-20T07:15:18;8.38;;;5.18;;
30249;SDS011;17064;47.974;13.826;2023-03-20T07:20:20;7.82;;;5.32;;
30249;SDS011;17064;47.974;13.826;2023-03-20T07:25:20;6.22;;;4.93;;
30249;SDS011;17064;47.974;13.826;2023-03-20T07:30:21;7.38;;;5.20;;
30249;SDS011;17064;47.974;13.826;2023-03-20T07:35:22;9.00;;;5.88;;
30249;SDS011;17064;47.974;13.826;2023-03-20T07:40:23;9.88;;;6.32;;
30249;SDS011;17064;47.974;13.826;2023-03-20T07:45:24;9.00;;;5.70;;
30249;SDS011;17064;47.974;13.826;2023-03-20T07:50:24;7.70;;;5.75;;
30249;SDS011;17064;47.974;13.826;2023-03-20T07:55:25;9.60;;;5.57;;
30249;SDS011;17064;47.974;13.826;2023-03-20T08:00:26;8.80;;;6.18;;
30249;SDS011;17064;47.974;13.826;2023-03-20T08:05:27;8.27;;;5.50;;
30249;SDS011;17064;47.974;13.826;2023-03-20T08:10:28;10.77;;;5.50;;
30249;SDS011;17064;47.974;13.826;2023-03-20T08:15:28;7.50;;;4.75;;
30249;SDS011;17064;47.974;13.826;2023-03-20T08:20:30;5.18;;;4.32;;
30249;SDS011;17064;47.974;13.826;2023-03-20T08:25:30;5.70;;;4.53;;
30249;SDS011;17064;47.974;13.826;2023-03-20T08:30:32;7.38;;;4.25;;
30249;SDS011;17064;47.974;13.826;2023-03-20T08:35:33;6.97;;;4.80;;
30249;SDS011;17064;47.974;13.826;2023-03-20T08:40:34;9.13;;;4.85;;
30249;SDS011;17064;47.974;13.826;2023-03-20T08:45:35;9.07;;;4.40;;
30249;SDS011;17064;47.974;13.826;2023-03-20T08:50:36;8.68;;;4.50;;
30249;SDS011;17064;47.974;13.826;2023-03-20T08:55:37;6.57;;;4.05;;
30249;SDS011;17064;47.974;13.826;2023-03-20T09:00:38;6.47;;;5.03;;
30249;SDS011;17064;47.974;13.826;2023-03-20T09:05:39;7.68;;;4.72;;
30249;SDS011;17064;47.974;13.826;2023-03-20T09:10:40;7.18;;;4.53;;
30249;SDS011;17064;47.974;13.826;2023-03-20T09:15:41;10.32;;;4.38;;
30249;SDS011;17064;47.974;13.826;2023-03-20T09:20:43;5.97;;;4.70;;
30249;SDS011;17064;47.974;13.826;2023-03-20T09:30:46;6.35;;;4.82;;
30249;SDS011;17064;47.974;13.826;2023-03-20T09:35:47;12.00;;;5.40;;
30249;SDS011;17064;47.974;13.826;2023-03-20T09:41:00;7.95;;;4.70;;
30249;SDS011;17064;47.974;13.826;2023-03-20T09:46:06;8.65;;;4.60;;
30249;SDS011;17064;47.974;13.826;2023-03-20T09:51:29;7.15;;;3.80;;
30249;SDS011;17064;47.974;13.826;2023-03-20T09:56:50;6.53;;;3.80;;
30249;SDS011;17064;47.974;13.826;2023-03-20T10:01:52;6.88;;;4.07;;
30249;SDS011;17064;47.974;13.826;2023-03-20T10:06:54;7.07;;;4.10;;
30249;SDS011;17064;47.974;13.826;2023-03-20T10:22:32;5.60;;;4.20;;
30249;SDS011;17064;47.974;13.826;2023-03-20T10:27:39;7.47;;;4.22;;
30249;SDS011;17064;47.974;13.826;2023-03-20T10:43:17;5.57;;;3.28;;
30249;SDS011;17064;47.974;13.826;2023-03-20T10:58:46;4.32;;;2.80;;
30249;SDS011;17064;47.974;13.826;2023-03-20T11:03:49;4.18;;;3.33;;
30249;SDS011;17064;47.974;13.826;2023-03-20T11:08:51;9.40;;;4.30;;
30249;SDS011;17064;47.974;13.826;2023-03-20T11:13:52;3.72;;;3.17;;
30249;SDS011;17064;47.974;13.826;2023-03-20T11:18:53;6.88;;;3.42;;
30249;SDS011;17064;47.974;13.826;2023-03-20T11:23:54;5.53;;;3.47;;
30249;SDS011;17064;47.974;13.826;2023-03-20T11:28:55;4.25;;;2.92;;
30249;SDS011;17064;47.974;13.826;2023-03-20T11:34:43;3.13;;;2.63;;
30249;SDS011;17064;47.974;13.826;2023-03-20T11:39:25;5.28;;;3.10;;
30249;SDS011;17064;47.974;13.826;2023-03-20T11:44:34;5.25;;;3.22;;
30249;SDS011;17064;47.974;13.826;2023-03-20T11:49:51;5.88;;;3.80;;
30249;SDS011;17064;47.974;13.826;2023-03-20T11:54:55;3.47;;;2.72;;
30249;SDS011;17064;47.974;13.826;2023-03-20T11:59:59;3.47;;;2.75;;
30249;SDS011;17064;47.974;13.826;2023-03-20T12:05:16;5.05;;;3.08;;
30249;SDS011;17064;47.974;13.826;2023-03-20T12:10:17;4.50;;;3.00;;
30249;SDS011;17064;47.974;13.826;2023-03-20T12:25:46;4.57;;;2.88;;
30249;SDS011;17064;47.974;13.826;2023-03-20T12:36:15;6.90;;;3.28;;
30249;SDS011;17064;47.974;13.826;2023-03-20T12:46:26;3.05;;;2.72;;
30249;SDS011;17064;47.974;13.826;2023-03-20T13:01:58;3.50;;;2.15;;
30249;SDS011;17064;47.974;13.826;2023-03-20T13:07:37;5.80;;;2.30;;
30249;SDS011;17064;47.974;13.826;2023-03-20T13:18:13;5.88;;;1.73;;
30249;SDS011;17064;47.974;13.826;2023-03-20T13:24:06;3.33;;;1.83;;
30249;SDS011;17064;47.974;13.826;2023-03-20T13:34:09;5.68;;;1.90;;
30249;SDS011;17064;47.974;13.826;2023-03-20T13:44:38;3.00;;;1.65;;
30249;SDS011;17064;47.974;13.826;2023-03-20T13:50:21;2.53;;;1.60;;
30249;SDS011;17064;47.974;13.826;2023-03-20T14:05:54;3.50;;;2.30;;
30249;SDS011;17064;47.974;13.826;2023-03-20T14:11:06;3.65;;;2.35;;
30249;SDS011;17064;47.974;13.826;2023-03-20T14:16:10;4.30;;;2.00;;
30249;SDS011;17064;47.974;13.826;2023-03-20T14:21:18;2.30;;;1.70;;
30249;SDS011;17064;47.974;13.826;2023-03-20T14:26:24;5.20;;;1.90;;
30249;SDS011;17064;47.974;13.826;2023-03-20T14:31:31;3.65;;;2.13;;
30249;SDS011;17064;47.974;13.826;2023-03-20T14:36:44;1.75;;;1.65;;
30249;SDS011;17064;47.974;13.826;2023-03-20T14:41:56;2.55;;;1.75;;
30249;SDS011;17064;47.974;13.826;2023-03-20T14:47:04;2.28;;;1.40;;
30249;SDS011;17064;47.974;13.826;2023-03-20T14:58:31;3.28;;;1.45;;
30249;SDS011;17064;47.974;13.826;2023-03-20T15:03:36;2.65;;;1.65;;
30249;SDS011;17064;47.974;13.826;2023-03-20T15:08:44;2.08;;;1.58;;
30249;SDS011;17064;47.974;13.826;2023-03-20T15:13:49;2.38;;;1.67;;
30249;SDS011;17064;47.974;13.826;2023-03-20T15:18:51;3.60;;;2.07;;
30249;SDS011;17064;47.974;13.826;2023-03-20T15:23:52;4.68;;;2.03;;
30249;SDS011;17064;47.974;13.826;2023-03-20T15:28:55;8.57;;;1.70;;
30249;SDS011;17064;47.974;13.826;2023-03-20T15:34:03;2.97;;;1.60;;
30249;SDS011;17064;47.974;13.826;2023-03-20T15:39:14;13.95;;;1.83;;
30249;SDS011;17064;47.974;13.826;2023-03-20T15:49:21;9.30;;;1.87;;
30249;SDS011;17064;47.974;13.826;2023-03-20T15:54:22;2.72;;;1.65;;
30249;SDS011;17064;47.974;13.826;2023-03-20T15:59:25;2.97;;;1.05;;
30249;SDS011;17064;47.974;13.826;2023-03-20T16:04:29;1.90;;;1.30;;
30249;SDS011;17064;47.974;13.826;2023-03-20T16:09:30;4.15;;;0.65;;
30249;SDS011;17064;47.974;13.826;2023-03-20T16:14:41;2.00;;;0.70;;
30249;SDS011;17064;47.974;13.826;2023-03-20T16:19:44;3.05;;;0.80;;
30249;SDS011;17064;47.974;13.826;2023-03-20T16:24:46;2.15;;;0.80;;
30249;SDS011;17064;47.974;13.826;2023-03-20T16:29:51;1.67;;;0.95;;
30249;SDS011;17064;47.974;13.826;2023-03-20T16:34:53;2.53;;;1.08;;
30249;SDS011;17064;47.974;13.826;2023-03-20T16:45:43;5.28;;;1.10;;
30249;SDS011;17064;47.974;13.826;2023-03-20T16:50:45;1.90;;;1.00;;
30249;SDS011;17064;47.974;13.826;2023-03-20T16:55:58;7.32;;;2.10;;
30249;SDS011;17064;47.974;13.826;2023-03-20T17:01:04;4.80;;;1.38;;
30249;SDS011;17064;47.974;13.826;2023-03-20T17:06:32;1.88;;;1.23;;
30249;SDS011;17064;47.974;13.826;2023-03-20T17:11:36;6.22;;;2.83;;
30249;SDS011;17064;47.974;13.826;2023-03-20T17:16:38;6.22;;;3.85;;
30249;SDS011;17064;47.974;13.826;2023-03-20T17:21:39;12.15;;;7.60;;
30249;SDS011;17064;47.974;13.826;2023-03-20T17:26:48;3.70;;;2.72;;
30249;SDS011;17064;47.974;13.826;2023-03-20T17:31:54;3.78;;;2.35;;
30249;SDS011;17064;47.974;13.826;2023-03-20T17:36:55;9.63;;;4.30;;
30249;SDS011;17064;47.974;13.826;2023-03-20T17:41:58;5.82;;;2.70;;
30249;SDS011;17064;47.974;13.826;2023-03-20T17:46:59;6.40;;;3.30;;
30249;SDS011;17064;47.974;13.826;2023-03-20T17:52:01;5.70;;;2.75;;
30249;SDS011;17064;47.974;13.826;2023-03-20T17:57:05;7.18;;;2.85;;
30249;SDS011;17064;47.974;13.826;2023-03-20T18:02:10;6.60;;;3.17;;
30249;SDS011;17064;47.974;13.826;2023-03-20T18:07:11;8.63;;;4.05;;
30249;SDS011;17064;47.974;13.826;2023-03-20T18:12:14;6.38;;;4.03;;
30249;SDS011;17064;47.974;13.826;2023-03-20T18:17:17;8.63;;;4.32;;
30249;SDS011;17064;47.974;13.826;2023-03-20T18:22:18;9.10;;;6.15;;
30249;SDS011;17064;47.974;13.826;2023-03-20T18:27:19;7.30;;;4.20;;
30249;SDS011;17064;47.974;13.826;2023-03-20T18:32:21;11.10;;;2.70;;
30249;SDS011;17064;47.974;13.826;2023-03-20T18:37:23;3.03;;;2.20;;
30249;SDS011;17064;47.974;13.826;2023-03-20T18:42:24;6.85;;;3.33;;
30249;SDS011;17064;47.974;13.826;2023-03-20T18:47:25;2.55;;;1.70;;
30249;SDS011;17064;47.974;13.826;2023-03-20T18:52:26;3.95;;;1.90;;
30249;SDS011;17064;47.974;13.826;2023-03-20T18:57:28;3.03;;;2.20;;
30249;SDS011;17064;47.974;13.826;2023-03-20T19:02:30;6.38;;;4.28;;
30249;SDS011;17064;47.974;13.826;2023-03-20T19:07:32;16.17;;;7.45;;
30249;SDS011;17064;47.974;13.826;2023-03-20T19:12:33;15.80;;;8.25;;
30249;SDS011;17064;47.974;13.826;2023-03-20T19:17:36;2.88;;;2.05;;
30249;SDS011;17064;47.974;13.826;2023-03-20T19:22:37;4.27;;;2.27;;
30249;SDS011;17064;47.974;13.826;2023-03-20T19:27:38;2.80;;;2.22;;
30249;SDS011;17064;47.974;13.826;2023-03-20T19:32:42;2.85;;;2.20;;
30249;SDS011;17064;47.974;13.826;2023-03-20T19:37:43;4.20;;;2.15;;
30249;SDS011;17064;47.974;13.826;2023-03-20T19:42:44;4.30;;;2.45;;
30249;SDS011;17064;47.974;13.826;2023-03-20T19:47:46;3.42;;;2.28;;
30249;SDS011;17064;47.974;13.826;2023-03-20T19:52:47;6.43;;;2.50;;
30249;SDS011;17064;47.974;13.826;2023-03-20T19:57:48;4.35;;;2.65;;
30249;SDS011;17064;47.974;13.826;2023-03-20T20:02:51;5.32;;;2.60;;
30249;SDS011;17064;47.974;13.826;2023-03-20T20:07:52;3.85;;;2.60;;
30249;SDS011;17064;47.974;13.826;2023-03-20T20:12:54;10.25;;;3.15;;
30249;SDS011;17064;47.974;13.826;2023-03-20T20:17:55;7.03;;;3.38;;
30249;SDS011;17064;47.974;13.826;2023-03-20T20:22:57;7.38;;;2.70;;
30249;SDS011;17064;47.974;13.826;2023-03-20T20:27:58;4.35;;;2.63;;
30249;SDS011;17064;47.974;13.826;2023-03-20T20:32:59;3.70;;;2.42;;
30249;SDS011;17064;47.974;13.826;2023-03-20T20:38:01;4.07;;;2.65;;
30249;SDS011;17064;47.974;13.826;2023-03-20T20:43:02;5.35;;;2.58;;
30249;SDS011;17064;47.974;13.826;2023-03-20T20:48:03;5.70;;;2.03;;
30249;SDS011;17064;47.974;13.826;2023-03-20T20:53:06;2.63;;;1.93;;
30249;SDS011;17064;47.974;13.826;2023-03-20T20:58:07;9.38;;;2.60;;
30249;SDS011;17064;47.974;13.826;2023-03-20T21:03:09;2.75;;;1.77;;
30249;SDS011;17064;47.974;13.826;2023-03-20T21:08:10;4.53;;;2.10;;
30249;SDS011;17064;47.974;13.826;2023-03-20T21:13:13;4.25;;;2.17;;
30249;SDS011;17064;47.974;13.826;2023-03-20T21:18:14;2.85;;;2.00;;
30249;SDS011;17064;47.974;13.826;2023-03-20T21:23:15;2.92;;;1.92;;
30249;SDS011;17064;47.974;13.826;2023-03-20T21:28:17;3.58;;;2.00;;
30249;SDS011;17064;47.974;13.826;2023-03-20T21:33:17;3.70;;;1.52;;
30249;SDS011;17064;47.974;13.826;2023-03-20T21:38:18;8.77;;;3.83;;
30249;SDS011;17064;47.974;13.826;2023-03-20T21:43:20;3.60;;;2.35;;
30249;SDS011;17064;47.974;13.826;2023-03-20T21:48:20;4.30;;;2.25;;
30249;SDS011;17064;47.974;13.826;2023-03-20T21:53:21;6.22;;;1.95;;
30249;SDS011;17064;47.974;13.826;2023-03-20T21:58:23;2.58;;;1.80;;
30249;SDS011;17064;47.974;13.826;2023-03-20T22:03:24;2.35;;;1.42;;
30249;SDS011;17064;47.974;13.826;2023-03-20T22:08:26;2.60;;;1.70;;
30249;SDS011;17064;47.974;13.826;2023-03-20T22:13:26;1.48;;;1.10;;
30249;SDS011;17064;47.974;13.826;2023-03-20T22:18:27;3.88;;;1.73;;
30249;SDS011;17064;47.974;13.826;2023-03-20T22:23:28;1.80;;;1.45;;
30249;SDS011;17064;47.974;13.826;2023-03-20T22:28:29;3.65;;;1.30;;
30249;SDS011;17064;47.974;13.826;2023-03-20T22:33:31;2.45;;;1.33;;
30249;SDS011;17064;47.974;13.826;2023-03-20T22:38:31;2.60;;;1.27;;
30249;SDS011;17064;47.974;13.826;2023-03-20T22:43:32;1.85;;;1.50;;
30249;SDS011;17064;47.974;13.826;2023-03-20T22:48:33;2.92;;;1.40;;
30249;SDS011;17064;47.974;13.826;2023-03-20T22:53:34;2.13;;;1.60;;
30249;SDS011;17064;47.974;13.826;2023-03-20T22:58:34;2.17;;;1.70;;
30249;SDS011;17064;47.974;13.826;2023-03-20T23:03:35;2.60;;;1.30;;
30249;SDS011;17064;47.974;13.826;2023-03-20T23:08:36;3.60;;;1.17;;
30249;SDS011;17064;47.974;13.826;2023-03-20T23:13:37;3.90;;;1.63;;
30249;SDS011;17064;47.974;13.826;2023-03-20T23:18:38;1.88;;;1.30;;
30249;SDS011;17064;47.974;13.826;2023-03-20T23:23:38;3.30;;;1.80;;
30249;SDS011;17064;47.974;13.826;2023-03-20T23:28:40;2.85;;;1.75;;
30249;SDS011;17064;47.974;13.826;2023-03-20T23:33:43;3.22;;;1.90;;
30249;SDS011;17064;47.974;13.826;2023-03-20T23:38:47;2.22;;;1.45;;
30249;SDS011;17064;47.974;13.826;2023-03-20T23:43:48;1.63;;;1.20;;
30249;SDS011;17064;47.974;13.826;2023-03-20T23:48:49;1.33;;;1.10;;
30249;SDS011;17064;47.974;13.826;2023-03-20T23:53:50;2.17;;;1.40;;
30249;SDS011;17064;47.974;13.826;2023-03-20T23:58:51;2.78;;;1.50;;
